createdAt,value
2022-12-23T00:01:11.605Z,65.50
2022-12-23T00:04:00.577Z,64.40
2022-12-23T00:06:38.099Z,65.30
2022-12-23T00:10:00.756Z,65.00
2022-12-23T00:12:39.501Z,64.70
2022-12-23T00:15:23.527Z,63.90
2022-12-23T00:18:00.300Z,65.30
2022-12-23T00:20:37.217Z,66.20
2022-12-23T00:23:13.463Z,66.30
2022-12-23T00:25:52.457Z,66.50
2022-12-23T00:28:26.196Z,66.60
2022-12-23T00:31:03.544Z,66.10
2022-12-23T00:33:50.294Z,66.90
2022-12-23T00:36:44.767Z,66.90
2022-12-23T00:40:05.880Z,66.50
2022-12-23T00:42:55.325Z,66.40
2022-12-23T00:45:32.228Z,66.70
2022-12-23T00:48:52.836Z,65.60
2022-12-23T00:51:27.263Z,65.40
2022-12-23T00:53:59.513Z,65.70
2022-12-23T00:56:42.919Z,65.70
2022-12-23T00:59:30.327Z,66.40
2022-12-23T01:02:28.395Z,66.50
2022-12-23T01:05:22.877Z,67.20
2022-12-23T01:08:05.938Z,67.10
2022-12-23T01:10:37.344Z,66.70
2022-12-23T01:13:39.740Z,66.50
2022-12-23T01:16:25.871Z,67.10
2022-12-23T01:18:57.182Z,67.50
2022-12-23T01:21:38.029Z,67.50
2022-12-23T01:24:21.601Z,67.80
2022-12-23T01:26:55.771Z,67.70
2022-12-23T01:29:31.205Z,68.10
2022-12-23T01:32:02.471Z,67.80
2022-12-23T01:34:58.930Z,68.10
2022-12-23T01:38:04.796Z,68.10
2022-12-23T01:40:42.256Z,68.30
2022-12-23T01:43:25.814Z,68.40
2022-12-23T01:45:59.392Z,68.30
2022-12-23T01:48:51.535Z,68.30
2022-12-23T01:51:33.755Z,68.30
2022-12-23T01:54:25.730Z,68.10
2022-12-23T01:57:12.327Z,68.80
2022-12-23T02:00:08.575Z,67.90
2022-12-23T02:03:00.630Z,68.20
2022-12-23T02:05:33.969Z,68.50
2022-12-23T02:08:24.186Z,68.40
2022-12-23T02:10:58.341Z,68.10
2022-12-23T02:14:06.337Z,68.30
2022-12-23T02:16:57.436Z,67.80
2022-12-23T02:19:55.800Z,68.10
2022-12-23T02:22:36.656Z,67.10
2022-12-23T02:25:38.112Z,68.00
2022-12-23T02:28:18.685Z,67.80
2022-12-23T02:31:12.542Z,68.30
2022-12-23T02:33:52.991Z,68.20
2022-12-23T02:37:01.669Z,68.20
2022-12-23T02:39:45.095Z,68.00
2022-12-23T02:42:28.376Z,68.70
2022-12-23T02:45:04.606Z,69.20
2022-12-23T02:47:44.662Z,68.70
2022-12-23T02:50:22.401Z,69.10
2022-12-23T02:53:07.607Z,69.30
2022-12-23T02:55:36.507Z,69.30
2022-12-23T02:58:25.619Z,70.10
2022-12-23T03:01:02.079Z,70.50
2022-12-23T03:03:36.701Z,71.20
2022-12-23T03:06:23.541Z,71.60
2022-12-23T03:09:22.396Z,70.60
2022-12-23T03:12:07.832Z,71.10
2022-12-23T03:14:50.593Z,71.10
2022-12-23T03:17:40.829Z,71.00
2022-12-23T03:20:55.022Z,70.40
2022-12-23T03:23:55.555Z,70.40
2022-12-23T03:26:32.932Z,70.30
2022-12-23T03:29:19.594Z,69.20
2022-12-23T03:31:59.063Z,70.00
2022-12-23T03:34:39.471Z,70.40
2022-12-23T03:37:22.920Z,69.50
2022-12-23T03:40:04.522Z,70.40
2022-12-23T03:43:12.941Z,69.30
2022-12-23T03:46:32.341Z,69.10
2022-12-23T03:49:12.027Z,70.50
2022-12-23T03:51:50.265Z,70.60
2022-12-23T03:54:23.374Z,69.50
2022-12-23T03:57:07.381Z,70.00
2022-12-23T03:59:41.290Z,69.40
2022-12-23T04:02:22.622Z,69.10
2022-12-23T04:05:06.066Z,68.70
2022-12-23T04:07:43.306Z,69.00
2022-12-23T04:10:23.389Z,68.60
2022-12-23T04:13:23.824Z,68.70
2022-12-23T04:15:55.001Z,67.70
2022-12-23T04:18:27.591Z,67.20
2022-12-23T04:21:03.996Z,67.30
2022-12-23T04:23:43.219Z,67.10
2022-12-23T04:26:31.420Z,67.20
2022-12-23T04:29:45.827Z,66.40
2022-12-23T04:32:21.859Z,66.00
2022-12-23T04:34:56.178Z,64.80
2022-12-23T04:37:52.903Z,64.80
2022-12-23T04:40:35.716Z,65.00
2022-12-23T04:43:08.504Z,65.00
2022-12-23T04:46:04.264Z,65.20
2022-12-23T04:48:54.291Z,64.90
2022-12-23T04:51:32.725Z,64.40
2022-12-23T04:54:05.246Z,64.80
2022-12-23T04:59:29.817Z,64.00
2022-12-23T05:05:02.470Z,63.00
2022-12-23T05:07:38.484Z,63.10
2022-12-23T05:10:25.274Z,63.20
2022-12-23T05:15:50.240Z,65.70
2022-12-23T05:18:33.778Z,64.60
2022-12-23T05:21:11.427Z,66.20
2022-12-23T05:24:13.298Z,65.10
2022-12-23T05:27:00.440Z,65.90
2022-12-23T05:29:40.224Z,64.80
2022-12-23T05:32:11.940Z,65.70
2022-12-23T05:34:48.474Z,66.20
2022-12-23T05:37:23.057Z,67.30
2022-12-23T05:39:59.838Z,65.70
2022-12-23T05:42:41.546Z,67.00
2022-12-23T05:45:33.952Z,67.20
2022-12-23T05:48:10.460Z,67.00
2022-12-23T05:50:43.410Z,67.50
2022-12-23T05:53:32.315Z,67.80
2022-12-23T05:56:18.703Z,67.90
2022-12-23T05:59:27.655Z,69.60
2022-12-23T06:02:44.319Z,70.40
2022-12-23T06:05:14.675Z,70.70
2022-12-23T06:08:15.163Z,71.40
2022-12-23T06:11:29.522Z,71.90
2022-12-23T06:14:02.076Z,71.70
2022-12-23T06:19:23.937Z,73.30
2022-12-23T06:21:54.859Z,73.10
2022-12-23T06:24:29.947Z,73.60
2022-12-23T06:27:10.491Z,73.90
2022-12-23T06:29:44.729Z,74.40
2022-12-23T06:32:13.336Z,74.70
2022-12-23T06:34:40.979Z,74.80
2022-12-23T06:37:08.728Z,75.70
2022-12-23T06:39:39.643Z,76.20
2022-12-23T06:42:06.861Z,76.50
2022-12-23T06:44:34.099Z,76.90
2022-12-23T06:47:01.324Z,77.40
2022-12-23T06:49:28.365Z,77.70
2022-12-23T06:51:55.327Z,78.50
2022-12-23T06:54:22.434Z,78.80
2022-12-23T06:56:49.330Z,78.50
2022-12-23T06:59:17.025Z,80.20
2022-12-23T07:01:44.302Z,79.40
2022-12-23T07:04:11.389Z,80.10
2022-12-23T07:06:39.604Z,79.80
2022-12-23T07:09:07.679Z,80.50
2022-12-23T07:11:34.930Z,80.40
2022-12-23T07:14:01.985Z,80.90
2022-12-23T07:16:29.349Z,81.10
2022-12-23T07:18:56.665Z,80.90
2022-12-23T07:21:29.047Z,80.90
2022-12-23T07:23:57.395Z,80.70
2022-12-23T07:26:24.347Z,80.60
2022-12-23T07:28:51.405Z,80.90
2022-12-23T07:31:18.766Z,81.10
2022-12-23T07:33:46.153Z,81.00
2022-12-23T07:36:13.259Z,81.10
2022-12-23T07:38:43.162Z,81.30
2022-12-23T07:41:10.071Z,81.20
2022-12-23T07:43:37.017Z,81.50
2022-12-23T07:46:07.883Z,81.50
2022-12-23T07:48:34.914Z,81.30
2022-12-23T07:51:02.500Z,81.60
2022-12-23T07:53:29.695Z,81.90
2022-12-23T07:55:57.076Z,82.10
2022-12-23T07:58:24.432Z,81.80
2022-12-23T08:00:51.726Z,82.10
2022-12-23T08:03:18.915Z,82.00
2022-12-23T08:05:45.991Z,81.70
2022-12-23T08:08:13.230Z,81.90
2022-12-23T08:10:47.690Z,82.60
2022-12-23T08:13:17.963Z,82.00
2022-12-23T08:15:45.119Z,82.00
2022-12-23T08:18:12.851Z,81.80
2022-12-23T08:20:39.912Z,82.20
2022-12-23T08:23:07.164Z,82.10
2022-12-23T08:25:34.118Z,82.20
2022-12-23T08:28:01.242Z,82.20
2022-12-23T08:30:28.379Z,82.20
2022-12-23T08:32:55.346Z,82.30
2022-12-23T08:35:22.510Z,82.20
2022-12-23T08:37:49.593Z,82.10
2022-12-23T08:40:19.816Z,82.10
2022-12-23T08:42:47.245Z,82.10
2022-12-23T08:45:16.555Z,82.30
2022-12-23T08:47:43.559Z,82.20
2022-12-23T08:50:12.256Z,82.20
2022-12-23T08:52:39.295Z,82.50
2022-12-23T08:55:06.430Z,82.70
2022-12-23T08:57:34.330Z,82.80
2022-12-23T09:00:01.475Z,82.80
2022-12-23T09:02:28.597Z,82.80
2022-12-23T09:04:55.785Z,83.00
2022-12-23T09:07:22.995Z,83.00
2022-12-23T09:09:50.121Z,82.80
2022-12-23T09:12:17.158Z,83.00
2022-12-23T09:14:44.771Z,83.10
2022-12-23T09:17:11.934Z,83.00
2022-12-23T09:19:39.230Z,82.90
2022-12-23T09:22:06.450Z,82.90
2022-12-23T09:24:33.528Z,82.90
2022-12-23T09:27:00.583Z,83.00
2022-12-23T09:29:27.733Z,83.10
2022-12-23T09:31:55.068Z,83.20
2022-12-23T09:34:22.189Z,83.30
2022-12-23T09:36:55.134Z,83.40
2022-12-23T09:39:22.680Z,83.50
2022-12-23T09:42:05.341Z,83.60
2022-12-23T09:44:32.400Z,83.50
2022-12-23T09:47:03.564Z,83.50
2022-12-23T09:52:55.439Z,83.40
2022-12-23T09:55:22.590Z,83.50
2022-12-23T09:57:51.261Z,83.40
2022-12-23T10:00:18.513Z,83.50
2022-12-23T10:03:01.367Z,83.50
2022-12-23T10:05:31.541Z,83.50
2022-12-23T10:07:59.467Z,83.50
2022-12-23T10:10:33.185Z,83.40
2022-12-23T10:13:00.745Z,83.10
2022-12-23T10:15:44.009Z,83.50
2022-12-23T10:18:31.276Z,83.50
2022-12-23T10:20:59.919Z,83.70
2022-12-23T10:23:34.664Z,83.80
2022-12-23T10:26:01.959Z,83.70
2022-12-23T10:28:29.577Z,83.60
2022-12-23T10:34:11.526Z,83.50
2022-12-23T10:36:47.354Z,83.50
2022-12-23T10:39:19.513Z,83.50
2022-12-23T10:41:59.032Z,83.40
2022-12-23T10:44:41.543Z,83.30
2022-12-23T10:47:24.747Z,83.40
2022-12-23T10:50:10.637Z,82.80
2022-12-23T10:52:38.024Z,83.50
2022-12-23T10:55:05.496Z,83.10
2022-12-23T10:57:32.543Z,83.60
2022-12-23T10:59:59.675Z,83.70
2022-12-23T11:02:40.607Z,83.30
2022-12-23T11:05:12.504Z,83.90
2022-12-23T11:07:44.789Z,83.50
2022-12-23T11:10:19.703Z,83.60
2022-12-23T11:12:48.343Z,83.30
2022-12-23T11:15:24.831Z,83.10
2022-12-23T11:17:59.122Z,83.50
2022-12-23T11:20:26.249Z,83.30
2022-12-23T11:22:54.045Z,83.30
2022-12-23T11:25:32.026Z,82.50
2022-12-23T11:28:06.727Z,83.20
2022-12-23T11:30:36.576Z,83.00
2022-12-23T11:33:03.835Z,83.20
2022-12-23T11:35:31.640Z,82.90
2022-12-23T11:37:59.119Z,82.90
2022-12-23T11:40:49.299Z,82.40
2022-12-23T11:43:17.133Z,82.50
2022-12-23T11:45:44.463Z,81.40
2022-12-23T11:48:28.065Z,81.50
2022-12-23T11:50:58.913Z,81.20
2022-12-23T11:53:26.219Z,81.70
2022-12-23T11:55:58.155Z,81.70
2022-12-23T11:58:25.385Z,81.90
2022-12-23T12:00:56.101Z,82.50
2022-12-23T12:03:24.958Z,82.70
2022-12-23T12:05:53.583Z,83.10
2022-12-23T12:08:21.669Z,83.50
2022-12-23T12:10:52.705Z,84.20
2022-12-23T12:13:28.095Z,84.70
2022-12-23T12:16:14.034Z,85.10
2022-12-23T12:18:41.801Z,85.50
2022-12-23T12:21:16.815Z,85.60
2022-12-23T12:23:55.433Z,85.10
2022-12-23T12:26:41.237Z,84.90
2022-12-23T12:29:14.749Z,84.10
2022-12-23T12:31:43.150Z,82.40
2022-12-23T12:34:19.524Z,81.80
2022-12-23T12:36:51.249Z,81.60
2022-12-23T12:39:20.161Z,81.40
2022-12-23T12:42:12.079Z,80.70
2022-12-23T12:44:54.945Z,78.60
2022-12-23T12:47:52.639Z,74.80
2022-12-23T12:50:20.816Z,75.30
2022-12-23T12:52:48.038Z,73.50
2022-12-23T12:55:32.123Z,72.20
2022-12-23T12:58:02.645Z,71.90
2022-12-23T13:00:29.710Z,71.80
2022-12-23T13:03:32.256Z,71.00
2022-12-23T13:05:59.270Z,71.80
2022-12-23T13:08:35.573Z,72.70
2022-12-23T13:11:03.153Z,68.90
2022-12-23T13:13:37.543Z,68.20
2022-12-23T13:16:23.629Z,70.60
2022-12-23T13:18:53.966Z,68.60
2022-12-23T13:21:40.974Z,67.80
2022-12-23T13:24:09.386Z,68.90
2022-12-23T13:26:38.470Z,70.80
2022-12-23T13:29:06.494Z,70.20
2022-12-23T13:31:36.197Z,66.70
2022-12-23T13:34:33.368Z,65.10
2022-12-23T13:37:09.545Z,66.60
2022-12-23T13:39:43.412Z,65.20
2022-12-23T13:42:12.262Z,61.90
2022-12-23T13:44:39.279Z,60.40
2022-12-23T13:47:06.414Z,57.90
2022-12-23T13:49:36.607Z,58.40
2022-12-23T13:52:07.224Z,61.70
2022-12-23T13:54:40.884Z,57.60
2022-12-23T13:57:17.198Z,59.40
2022-12-23T14:00:04.900Z,56.60
2022-12-23T14:02:52.721Z,57.90
2022-12-23T14:05:39.262Z,58.40
2022-12-23T14:08:18.858Z,61.20
2022-12-23T14:10:57.020Z,60.10
2022-12-23T14:13:24.756Z,62.00
2022-12-23T14:15:56.957Z,63.10
2022-12-23T14:18:39.861Z,56.50
2022-12-23T14:21:11.727Z,58.70
2022-12-23T14:24:21.325Z,59.60
2022-12-23T14:26:50.984Z,59.50
2022-12-23T14:29:38.694Z,57.10
2022-12-23T14:32:23.967Z,58.30
2022-12-23T14:35:03.985Z,62.50
2022-12-23T14:37:34.688Z,66.10
2022-12-23T14:40:20.375Z,69.90
2022-12-23T14:42:47.788Z,72.80
2022-12-23T14:45:28.811Z,75.40
2022-12-23T14:47:56.075Z,76.90
2022-12-23T14:50:43.008Z,78.40
2022-12-23T14:53:30.346Z,79.50
2022-12-23T14:56:09.796Z,77.30
2022-12-23T14:58:38.020Z,77.60
2022-12-23T15:01:13.350Z,78.00
2022-12-23T15:03:41.611Z,78.70
2022-12-23T15:06:08.562Z,79.30
2022-12-23T15:08:39.673Z,80.30
2022-12-23T15:11:08.043Z,79.60
2022-12-23T15:13:35.016Z,80.60
2022-12-23T15:16:02.542Z,81.40
2022-12-23T15:18:29.815Z,82.90
2022-12-23T15:21:04.244Z,82.40
2022-12-23T15:23:33.480Z,78.80
2022-12-23T15:26:00.544Z,79.90
2022-12-23T15:28:37.863Z,79.30
2022-12-23T15:31:05.123Z,79.50
2022-12-23T15:36:35.833Z,77.10
2022-12-23T15:39:03.770Z,76.10
2022-12-23T15:41:30.760Z,74.60
2022-12-23T15:43:58.660Z,75.90
2022-12-23T15:46:30.061Z,75.60
2022-12-23T15:48:57.870Z,75.40
2022-12-23T15:52:05.698Z,76.70
2022-12-23T15:54:32.630Z,76.70
2022-12-23T15:57:01.720Z,76.50
2022-12-23T15:59:40.906Z,74.70
2022-12-23T16:05:32.167Z,73.10
2022-12-23T16:08:21.810Z,71.10
2022-12-23T16:11:10.604Z,71.80
2022-12-23T16:13:41.599Z,71.60
2022-12-23T16:16:20.195Z,70.80
2022-12-23T16:18:48.207Z,70.60
2022-12-23T16:21:17.716Z,71.70
2022-12-23T16:23:49.757Z,70.60
2022-12-23T16:26:23.080Z,69.80
2022-12-23T16:28:51.512Z,69.90
2022-12-23T16:31:19.375Z,69.00
2022-12-23T16:33:51.888Z,70.90
2022-12-23T16:36:26.348Z,70.10
2022-12-23T16:38:59.754Z,68.00
2022-12-23T16:41:28.014Z,68.10
2022-12-23T16:43:55.667Z,66.50
2022-12-23T16:46:23.538Z,65.70
2022-12-23T16:49:00.128Z,64.70
2022-12-23T16:51:42.578Z,62.00
2022-12-23T16:54:16.882Z,62.40
2022-12-23T16:56:44.297Z,62.80
2022-12-23T16:59:11.517Z,60.80
2022-12-23T17:01:40.802Z,63.80
2022-12-23T17:04:08.945Z,62.20
2022-12-23T17:06:52.701Z,64.20
2022-12-23T17:09:23.514Z,64.50
2022-12-23T17:11:56.694Z,64.30
2022-12-23T17:14:28.345Z,66.60
2022-12-23T17:17:07.141Z,62.00
2022-12-23T17:19:44.965Z,61.70
2022-12-23T17:22:17.775Z,59.10
2022-12-23T17:24:44.927Z,59.20
2022-12-23T17:27:13.772Z,58.60
2022-12-23T17:29:57.488Z,60.10
2022-12-23T17:32:27.650Z,56.80
2022-12-23T17:34:55.008Z,57.80
2022-12-23T17:37:24.431Z,58.20
2022-12-23T17:39:59.270Z,58.70
2022-12-23T17:42:29.051Z,59.10
2022-12-23T17:45:01.525Z,56.90
2022-12-23T17:47:43.320Z,56.60
2022-12-23T17:50:12.026Z,56.90
2022-12-23T17:53:05.335Z,55.90
2022-12-23T17:55:45.833Z,57.00
2022-12-23T17:58:17.501Z,57.30
2022-12-23T18:00:50.045Z,56.50
2022-12-23T18:03:24.049Z,56.90
2022-12-23T18:06:01.266Z,56.70
2022-12-23T18:08:29.937Z,55.80
2022-12-23T18:11:00.486Z,56.80
2022-12-23T18:14:00.253Z,58.10
2022-12-23T18:19:18.116Z,54.90
2022-12-23T18:30:28.893Z,55.90
2022-12-23T18:36:00.055Z,58.00
2022-12-23T18:38:27.841Z,58.50
2022-12-23T18:41:00.440Z,58.20
2022-12-23T18:43:35.104Z,57.40
2022-12-23T18:46:10.677Z,57.60
2022-12-23T18:48:38.849Z,59.50
2022-12-23T18:51:10.997Z,59.80
2022-12-23T18:53:51.966Z,59.60
2022-12-23T18:56:23.108Z,58.70
2022-12-23T18:58:57.043Z,60.50
2022-12-23T19:01:24.450Z,58.60
2022-12-23T19:03:52.237Z,59.60
2022-12-23T19:06:25.537Z,57.70
2022-12-23T19:08:56.097Z,58.30
2022-12-23T19:11:24.200Z,58.70
2022-12-23T19:13:51.852Z,58.50
2022-12-23T19:16:25.744Z,58.70
2022-12-23T19:18:55.840Z,58.80
2022-12-23T19:21:29.941Z,59.20
2022-12-23T19:23:58.783Z,59.40
2022-12-23T19:26:36.492Z,59.80
2022-12-23T19:29:09.307Z,59.60
2022-12-23T19:31:36.940Z,59.60
2022-12-23T19:34:14.655Z,60.30
2022-12-23T19:36:53.386Z,59.90
2022-12-23T19:39:31.573Z,60.50
2022-12-23T19:42:04.123Z,61.30
2022-12-23T19:44:47.242Z,61.50
2022-12-23T19:47:25.526Z,61.40
2022-12-23T19:49:53.229Z,61.80
2022-12-23T19:52:22.901Z,63.90
2022-12-23T19:55:00.885Z,63.60
2022-12-23T19:57:29.475Z,64.60
2022-12-23T20:00:02.055Z,64.50
2022-12-23T20:02:39.080Z,63.00
2022-12-23T20:05:35.325Z,62.80
2022-12-23T20:08:08.237Z,63.50
2022-12-23T20:10:43.951Z,62.70
2022-12-23T20:13:14.697Z,63.00
2022-12-23T20:15:42.088Z,63.10
2022-12-23T20:18:10.809Z,63.30
2022-12-23T20:20:40.111Z,63.10
2022-12-23T20:23:08.149Z,64.10
2022-12-23T20:25:36.668Z,65.10
2022-12-23T20:28:21.330Z,64.90
2022-12-23T20:31:30.546Z,63.90
2022-12-23T20:34:05.293Z,64.20
2022-12-23T20:39:44.700Z,66.00
2022-12-23T20:42:19.886Z,67.40
2022-12-23T20:44:55.464Z,67.30
2022-12-23T20:47:30.005Z,69.00
2022-12-23T20:50:13.250Z,68.60
2022-12-23T20:52:49.082Z,69.10
2022-12-23T20:55:30.978Z,69.10
2022-12-23T20:58:27.699Z,69.30
2022-12-23T21:01:18.191Z,69.40
2022-12-23T21:03:59.415Z,70.80
2022-12-23T21:06:56.448Z,71.00
2022-12-23T21:09:39.542Z,70.80
2022-12-23T21:12:11.205Z,71.00
2022-12-23T21:14:44.218Z,70.90
2022-12-23T21:17:24.220Z,71.50
2022-12-23T21:20:06.993Z,71.50
2022-12-23T21:25:18.418Z,74.00
2022-12-23T21:27:53.328Z,74.20
2022-12-23T21:30:20.754Z,74.80
2022-12-23T21:32:51.343Z,75.30
2022-12-23T21:35:22.039Z,76.40
2022-12-23T21:37:53.142Z,77.20
2022-12-23T21:40:25.968Z,77.50
2022-12-23T21:42:55.216Z,76.90
2022-12-23T21:45:34.502Z,76.60
2022-12-23T21:48:04.817Z,76.30
2022-12-23T21:50:34.858Z,76.70
2022-12-23T21:53:03.939Z,76.40
2022-12-23T21:55:34.678Z,76.40
2022-12-23T21:58:09.320Z,77.00
2022-12-23T22:00:46.795Z,76.70
2022-12-23T22:03:24.404Z,77.40
2022-12-23T22:06:11.256Z,77.20
2022-12-23T22:08:42.724Z,77.40
2022-12-23T22:11:45.804Z,77.60
2022-12-23T22:14:31.010Z,77.60
2022-12-23T22:17:10.184Z,77.70
2022-12-23T22:19:43.484Z,78.50
2022-12-23T22:22:18.540Z,78.60
2022-12-23T22:24:53.611Z,78.70
2022-12-23T22:27:37.466Z,78.70
2022-12-23T22:33:14.622Z,78.40
2022-12-23T22:35:56.343Z,78.10
2022-12-23T22:38:27.260Z,77.90
2022-12-23T22:40:56.602Z,77.90
2022-12-23T22:43:37.028Z,77.80
2022-12-23T22:46:05.864Z,77.60
2022-12-23T22:48:42.289Z,78.30
2022-12-23T22:51:26.285Z,78.50
2022-12-23T22:53:54.303Z,79.20
2022-12-23T22:56:31.524Z,78.90
2022-12-23T22:59:05.282Z,78.80
2022-12-23T23:01:41.169Z,79.30
2022-12-23T23:07:11.245Z,79.60
2022-12-23T23:09:41.181Z,78.80
2022-12-23T23:12:09.523Z,79.20
2022-12-23T23:15:02.283Z,78.60
2022-12-23T23:17:42.400Z,79.60
2022-12-23T23:20:23.429Z,79.30
2022-12-23T23:23:00.937Z,80.00
2022-12-23T23:25:35.368Z,79.60
2022-12-23T23:28:15.450Z,79.10
2022-12-23T23:30:59.079Z,79.20
2022-12-23T23:34:02.230Z,80.00
2022-12-23T23:36:47.655Z,79.30
2022-12-23T23:39:26.511Z,79.30
2022-12-23T23:41:58.859Z,79.40
2022-12-23T23:47:42.338Z,78.50
2022-12-23T23:50:22.233Z,77.90
2022-12-23T23:52:55.844Z,77.40
2022-12-23T23:55:32.347Z,76.60
2022-12-23T23:58:37.636Z,76.70
